Time;durP1;ratioP1;P1;durP2;ratioP2;P2;SDS_P1;SDS_P2;PMS_P1;PMS_P2;Temp;Humidity;BMP_temperature;BMP_pressure;BME280_temperature;BME280_humidity;BME280_pressure;Samples;Min_cycle;Max_cycle;Signal;HPM_P1;HPM_P2
2024/02/28 00:00:37;;;;;;;13.77;6.65;;;4.70;93.30;;;;;;5046465;28;20025;-65
2024/02/28 00:03:03;;;;;;;11.13;5.90;;;4.60;93.50;;;;;;5046497;28;20114;-65
2024/02/28 00:05:29;;;;;;;11.25;5.38;;;4.50;93.60;;;;;;5045355;28;20479;-65
2024/02/28 00:07:54;;;;;;;8.27;4.63;;;4.50;93.80;;;;;;5047377;28;20025;-66
2024/02/28 00:10:20;;;;;;;11.32;5.38;;;4.60;93.90;;;;;;5048039;28;20021;-64
2024/02/28 00:12:45;;;;;;;8.27;4.55;;;4.60;93.90;;;;;;5048649;28;20052;-65
2024/02/28 00:15:11;;;;;;;17.38;8.05;;;4.60;94.00;;;;;;5042616;28;20440;-65
2024/02/28 00:17:40;;;;;;;13.32;6.45;;;4.60;93.90;;;;;;5047558;28;20074;-64
2024/02/28 00:20:07;;;;;;;9.88;5.28;;;4.60;93.90;;;;;;5044327;28;20172;-64
2024/02/28 00:22:33;;;;;;;13.13;6.30;;;4.60;93.90;;;;;;5045882;28;20052;-65
2024/02/28 00:25:00;;;;;;;10.38;5.72;;;4.70;93.90;;;;;;5046347;28;20052;-66
2024/02/28 00:27:26;;;;;;;14.77;7.20;;;4.70;93.90;;;;;;5046911;28;20434;-64
2024/02/28 00:29:52;;;;;;;24.40;9.05;;;4.70;93.80;;;;;;5045616;28;20025;-65
2024/02/28 00:32:17;;;;;;;14.82;7.88;;;4.60;93.80;;;;;;5046723;28;20043;-65
2024/02/28 00:34:44;;;;;;;26.42;7.32;;;4.60;93.80;;;;;;5045405;28;20329;-66
2024/02/28 00:37:09;;;;;;;14.43;6.53;;;4.60;93.80;;;;;;5045694;28;20120;-67
2024/02/28 00:39:35;;;;;;;12.32;6.13;;;4.70;93.80;;;;;;5044587;28;20105;-67
2024/02/28 00:42:00;;;;;;;8.82;5.28;;;4.70;93.80;;;;;;5042706;28;20041;-64
2024/02/28 00:44:26;;;;;;;11.30;6.10;;;4.70;93.80;;;;;;5045200;28;20052;-65
2024/02/28 00:46:51;;;;;;;10.15;5.18;;;4.70;93.70;;;;;;5047439;28;20028;-65
2024/02/28 00:49:17;;;;;;;9.80;5.25;;;4.80;93.70;;;;;;5046366;28;20031;-65
2024/02/28 00:51:42;;;;;;;11.23;5.70;;;4.80;93.60;;;;;;5046657;28;20064;-65
2024/02/28 00:54:08;;;;;;;17.55;8.80;;;4.80;93.60;;;;;;5047890;28;20492;-65
2024/02/28 00:56:33;;;;;;;15.98;8.45;;;4.70;93.50;;;;;;5046876;28;20094;-65
2024/02/28 00:58:59;;;;;;;16.33;8.40;;;4.70;93.60;;;;;;5048099;28;20094;-66
2024/02/28 01:01:25;;;;;;;17.60;7.82;;;4.70;93.70;;;;;;5048091;28;20017;-66
2024/02/28 01:03:51;;;;;;;15.43;7.55;;;4.70;93.70;;;;;;5047570;28;20083;-66
2024/02/28 01:06:16;;;;;;;14.55;7.70;;;4.70;93.70;;;;;;5043736;28;20025;-66
2024/02/28 01:08:42;;;;;;;13.13;6.63;;;4.70;93.90;;;;;;5047735;28;20096;-66
2024/02/28 01:11:08;;;;;;;11.43;6.15;;;4.80;93.70;;;;;;5048508;28;20484;-66
2024/02/28 01:13:33;;;;;;;10.07;4.95;;;4.80;93.60;;;;;;5046891;28;20068;-66
2024/02/28 01:15:59;;;;;;;9.65;5.30;;;4.80;93.60;;;;;;5047082;28;20029;-66
2024/02/28 01:18:25;;;;;;;11.95;5.90;;;4.90;93.60;;;;;;5047549;28;20036;-67
2024/02/28 01:20:53;;;;;;;17.45;7.93;;;4.90;93.60;;;;;;5048112;28;20028;-65
2024/02/28 01:23:20;;;;;;;16.02;7.82;;;4.90;93.50;;;;;;5046332;28;20128;-67
2024/02/28 01:25:46;;;;;;;19.42;9.73;;;4.80;93.50;;;;;;5047744;28;20021;-67
2024/02/28 01:28:11;;;;;;;22.27;10.32;;;4.80;93.60;;;;;;5046581;28;20047;-66
2024/02/28 01:30:37;;;;;;;24.20;11.48;;;4.80;93.60;;;;;;5045675;28;20452;-65
2024/02/28 01:33:03;;;;;;;14.45;7.78;;;4.70;93.70;;;;;;5044244;28;20037;-64
2024/02/28 01:35:29;;;;;;;20.60;9.32;;;4.70;93.80;;;;;;5043936;28;20029;-65
2024/02/28 01:37:54;;;;;;;14.27;7.28;;;4.70;93.80;;;;;;5046789;28;20442;-67
2024/02/28 01:40:21;;;;;;;14.63;6.50;;;4.80;93.80;;;;;;5044914;28;20033;-65
2024/02/28 01:42:46;;;;;;;12.05;5.40;;;4.80;93.80;;;;;;5048116;28;20474;-67
2024/02/28 01:45:14;;;;;;;10.63;5.40;;;4.90;93.80;;;;;;5045114;28;20037;-65
2024/02/28 01:47:41;;;;;;;10.38;4.82;;;4.90;93.80;;;;;;5048359;28;20455;-65
2024/02/28 01:50:09;;;;;;;9.05;4.45;;;4.90;93.80;;;;;;5047149;28;20025;-65
2024/02/28 01:52:35;;;;;;;9.27;3.92;;;4.90;93.80;;;;;;5045087;28;20032;-67
2024/02/28 01:55:01;;;;;;;8.70;4.38;;;5.00;93.70;;;;;;5050546;28;20017;-66
2024/02/28 01:57:28;;;;;;;10.13;4.45;;;5.00;93.70;;;;;;5049470;28;20021;-66
2024/02/28 01:59:55;;;;;;;9.63;4.80;;;5.00;93.80;;;;;;5050542;28;20025;-66
2024/02/28 02:02:20;;;;;;;8.77;4.40;;;4.90;93.70;;;;;;5051111;28;20059;-66
2024/02/28 02:04:46;;;;;;;6.68;3.90;;;4.90;93.80;;;;;;5051041;28;20060;-67
2024/02/28 02:07:11;;;;;;;9.05;4.45;;;5.00;93.80;;;;;;5050884;28;20032;-67
2024/02/28 02:09:37;;;;;;;7.53;4.05;;;5.00;93.90;;;;;;5051661;28;20295;-67
2024/02/28 02:12:03;;;;;;;9.30;4.60;;;5.00;93.90;;;;;;5051548;28;20029;-67
2024/02/28 02:14:28;;;;;;;9.98;4.57;;;5.00;93.80;;;;;;5047726;28;20021;-67
2024/02/28 02:16:54;;;;;;;9.88;5.50;;;4.90;93.80;;;;;;5051061;28;20368;-67
2024/02/28 02:19:20;;;;;;;11.57;4.53;;;4.90;93.80;;;;;;5047103;28;20075;-68
2024/02/28 02:21:52;;;;;;;9.93;4.90;;;4.90;93.80;;;;;;5052889;28;20320;-67
2024/02/28 02:24:18;;;;;;;;;;;4.90;93.80;;;;;;5049658;28;20072;-67
2024/02/28 02:26:46;;;;;;;12.25;6.38;;;4.80;93.70;;;;;;5051319;28;19968;-67
2024/02/28 02:29:12;;;;;;;10.20;5.38;;;4.80;93.80;;;;;;5050195;28;20031;-66
2024/02/28 02:31:37;;;;;;;8.05;4.55;;;4.80;93.80;;;;;;5051050;28;20016;-67
2024/02/28 02:34:03;;;;;;;8.35;4.00;;;4.90;93.80;;;;;;5052614;28;20108;-67
2024/02/28 02:36:28;;;;;;;9.95;5.03;;;4.90;93.80;;;;;;5050975;28;20545;-67
2024/02/28 02:38:54;;;;;;;9.55;4.93;;;4.90;93.70;;;;;;5053071;28;20025;-66
2024/02/28 02:41:19;;;;;;;6.80;4.07;;;4.90;93.70;;;;;;5050824;28;20017;-66
2024/02/28 02:43:45;;;;;;;12.80;6.50;;;4.80;93.80;;;;;;5051760;28;20474;-67
2024/02/28 02:46:11;;;;;;;9.55;5.68;;;4.80;93.70;;;;;;5050719;28;20036;-65
2024/02/28 02:48:36;;;;;;;10.50;5.93;;;4.80;93.70;;;;;;5051965;28;20017;-66
2024/02/28 02:51:02;;;;;;;9.40;5.20;;;4.60;93.70;;;;;;5054484;28;20036;-66
2024/02/28 02:53:27;;;;;;;12.00;6.85;;;4.60;93.70;;;;;;5050615;28;20028;-66
2024/02/28 02:55:53;;;;;;;9.98;5.72;;;4.50;93.70;;;;;;5051762;28;20037;-65
2024/02/28 02:58:19;;;;;;;9.57;5.60;;;4.50;93.80;;;;;;5051946;28;20116;-66
2024/02/28 03:00:45;;;;;;;11.52;5.57;;;4.50;93.80;;;;;;5052006;28;20539;-66
2024/02/28 03:03:10;;;;;;;8.02;4.65;;;4.50;93.80;;;;;;5050564;28;20087;-67
2024/02/28 03:05:36;;;;;;;10.80;3.70;;;4.50;93.80;;;;;;5050677;28;20025;-67
2024/02/28 03:08:02;;;;;;;6.00;3.50;;;4.50;93.80;;;;;;5051259;28;20063;-67
2024/02/28 03:10:28;;;;;;;9.10;4.22;;;4.50;93.80;;;;;;5052213;28;20029;-66
2024/02/28 03:12:54;;;;;;;10.63;5.13;;;4.40;93.70;;;;;;5051770;28;20036;-68
2024/02/28 03:15:19;;;;;;;10.98;5.22;;;4.40;93.80;;;;;;5050216;28;20479;-65
2024/02/28 03:17:45;;;;;;;8.02;4.53;;;4.30;93.80;;;;;;5049910;28;20364;-66
2024/02/28 03:20:13;;;;;;;7.15;3.80;;;4.30;93.90;;;;;;5049887;28;20039;-64
2024/02/28 03:22:38;;;;;;;7.20;4.10;;;4.30;93.90;;;;;;5049423;28;20021;-67
2024/02/28 03:25:04;;;;;;;8.23;3.47;;;4.40;93.90;;;;;;5049268;28;20017;-65
2024/02/28 03:27:30;;;;;;;5.63;3.40;;;4.40;93.80;;;;;;5047684;28;20103;-65
2024/02/28 03:29:56;;;;;;;4.68;2.70;;;4.50;93.80;;;;;;5046902;28;20032;-65
2024/02/28 03:32:22;;;;;;;5.50;2.97;;;4.50;93.80;;;;;;5048957;28;20025;-67
2024/02/28 03:34:48;;;;;;;7.97;3.65;;;4.50;93.70;;;;;;5048776;28;20021;-65
2024/02/28 03:37:13;;;;;;;10.55;6.15;;;4.50;93.70;;;;;;5050013;28;20109;-66
2024/02/28 03:39:39;;;;;;;15.68;6.80;;;4.40;93.70;;;;;;5049599;28;20375;-67
2024/02/28 03:42:04;;;;;;;13.77;6.32;;;4.40;93.80;;;;;;5048920;28;20041;-67
2024/02/28 03:44:30;;;;;;;10.80;5.50;;;4.30;93.80;;;;;;5047718;28;20070;-65
2024/02/28 03:46:56;;;;;;;8.60;4.65;;;4.30;93.80;;;;;;5048586;28;20514;-65
2024/02/28 03:49:21;;;;;;;9.38;5.50;;;4.30;93.80;;;;;;5048499;28;20032;-65
2024/02/28 03:51:47;;;;;;;15.05;6.75;;;4.20;93.90;;;;;;5046709;28;20029;-67
2024/02/28 03:54:12;;;;;;;14.98;7.60;;;4.20;93.90;;;;;;5049242;28;20535;-67
2024/02/28 03:56:38;;;;;;;16.50;7.40;;;4.20;94.00;;;;;;5049902;28;20036;-65
2024/02/28 03:59:03;;;;;;;12.20;6.50;;;4.10;94.10;;;;;;5045509;28;20032;-65
2024/02/28 04:01:30;;;;;;;12.00;6.32;;;4.10;94.10;;;;;;5049899;28;20418;-66
2024/02/28 04:03:55;;;;;;;12.52;5.93;;;4.10;94.10;;;;;;5049581;28;20025;-65
2024/02/28 04:06:21;;;;;;;8.65;4.93;;;4.20;94.20;;;;;;5050842;28;20485;-64
2024/02/28 04:08:46;;;;;;;7.30;4.15;;;4.20;94.20;;;;;;5047878;28;20403;-65
2024/02/28 04:11:12;;;;;;;6.80;4.32;;;4.30;94.20;;;;;;5049456;28;20029;-65
2024/02/28 04:13:37;;;;;;;6.00;3.90;;;4.30;94.10;;;;;;5046038;28;20032;-65
2024/02/28 04:16:03;;;;;;;8.48;4.95;;;4.40;94.00;;;;;;5049144;28;20047;-65
2024/02/28 04:18:30;;;;;;;8.18;4.70;;;4.30;93.90;;;;;;5049653;28;20296;-65
2024/02/28 04:20:55;;;;;;;8.20;4.43;;;4.30;94.00;;;;;;5048851;28;20044;-66
2024/02/28 04:23:21;;;;;;;13.55;6.28;;;4.40;94.10;;;;;;5049688;28;20376;-65
2024/02/28 04:25:46;;;;;;;12.90;6.00;;;4.40;93.90;;;;;;5045661;28;20049;-65
2024/02/28 04:28:12;;;;;;;10.07;5.25;;;4.40;94.00;;;;;;5047007;28;20036;-65
2024/02/28 04:30:37;;;;;;;7.10;4.15;;;4.40;94.00;;;;;;5048487;28;20108;-66
2024/02/28 04:33:03;;;;;;;10.05;5.35;;;4.40;94.00;;;;;;5048574;28;20052;-66
2024/02/28 04:35:29;;;;;;;11.57;6.25;;;4.40;93.90;;;;;;5049526;28;20411;-65
2024/02/28 04:37:55;;;;;;;18.35;9.75;;;4.30;93.90;;;;;;5047672;28;20078;-66
2024/02/28 04:40:20;;;;;;;17.27;8.48;;;4.20;93.90;;;;;;5048793;28;20017;-66
2024/02/28 04:42:46;;;;;;;13.43;7.68;;;4.20;94.10;;;;;;5049478;28;20037;-65
2024/02/28 04:45:11;;;;;;;16.73;7.05;;;4.20;94.20;;;;;;5044176;28;20091;-64
2024/02/28 04:47:38;;;;;;;17.00;7.55;;;4.20;94.20;;;;;;5048271;28;20041;-65
2024/02/28 04:50:04;;;;;;;14.73;7.22;;;4.20;94.20;;;;;;5048955;28;20498;-65
2024/02/28 04:52:30;;;;;;;14.75;7.07;;;4.20;94.20;;;;;;5046310;28;20506;-65
2024/02/28 04:54:56;;;;;;;10.15;5.47;;;4.30;94.20;;;;;;5046597;28;20032;-66
2024/02/28 04:57:22;;;;;;;10.68;5.90;;;4.30;94.20;;;;;;5049122;28;20021;-66
2024/02/28 04:59:47;;;;;;;14.15;7.95;;;4.30;94.10;;;;;;5046833;28;20025;-66
2024/02/28 05:02:13;;;;;;;16.00;8.10;;;4.20;94.10;;;;;;5045418;28;20040;-66
2024/02/28 05:04:39;;;;;;;14.93;8.27;;;4.10;94.30;;;;;;5045184;28;20630;-66
2024/02/28 05:07:07;;;;;;;14.07;8.13;;;4.10;94.40;;;;;;5051780;28;20029;-66
2024/02/28 05:09:33;;;;;;;21.00;9.70;;;4.10;94.50;;;;;;5048730;28;20031;-67
2024/02/28 05:11:58;;;;;;;15.65;9.15;;;4.00;94.40;;;;;;5047523;28;20025;-66
2024/02/28 05:14:24;;;;;;;11.38;6.53;;;4.00;94.60;;;;;;5048487;28;20029;-66
2024/02/28 05:16:50;;;;;;;14.35;8.45;;;4.00;94.70;;;;;;5048677;28;20025;-66
2024/02/28 05:19:18;;;;;;;14.43;8.00;;;4.00;94.60;;;;;;5048668;28;20040;-64
2024/02/28 05:21:45;;;;;;;13.15;7.85;;;4.00;94.60;;;;;;5048341;28;20029;-63
2024/02/28 05:24:10;;;;;;;16.08;7.88;;;4.00;94.60;;;;;;5046375;28;20029;-65
2024/02/28 05:26:37;;;;;;;14.00;7.22;;;4.00;94.60;;;;;;5043641;28;20043;-65
2024/02/28 05:29:05;;;;;;;9.35;5.53;;;4.00;94.70;;;;;;5044774;28;20100;-65
2024/02/28 05:31:32;;;;;;;14.10;6.88;;;4.00;94.80;;;;;;5048215;28;20116;-66
2024/02/28 05:33:59;;;;;;;10.30;6.25;;;4.00;94.70;;;;;;5047427;28;20027;-66
2024/02/28 05:36:26;;;;;;;9.02;5.70;;;4.00;94.70;;;;;;5045965;28;20067;-65
2024/02/28 05:38:53;;;;;;;7.82;4.70;;;4.00;94.70;;;;;;5043587;28;20036;-66
2024/02/28 05:41:18;;;;;;;11.20;4.00;;;4.00;94.80;;;;;;5045698;28;20028;-66
2024/02/28 05:43:44;;;;;;;16.73;8.70;;;4.10;94.70;;;;;;5048631;28;20081;-63
2024/02/28 05:46:10;;;;;;;14.23;7.75;;;4.10;94.60;;;;;;5046857;28;20025;-64
2024/02/28 05:48:35;;;;;;;10.90;6.53;;;4.00;94.60;;;;;;5047752;28;20440;-65
2024/02/28 05:51:02;;;;;;;13.25;6.50;;;4.00;94.70;;;;;;5038898;28;20025;-66
2024/02/28 05:53:32;;;;;;;12.25;7.35;;;4.10;94.70;;;;;;5045872;28;20028;-66
2024/02/28 05:55:58;;;;;;;13.25;7.10;;;4.00;94.70;;;;;;5044004;28;20102;-65
2024/02/28 05:58:25;;;;;;;14.70;8.40;;;4.00;94.70;;;;;;5047489;28;20781;-66
2024/02/28 06:00:51;;;;;;;11.00;7.32;;;4.00;94.70;;;;;;5037045;28;20025;-66
2024/02/28 06:03:16;;;;;;;12.80;7.30;;;4.00;94.80;;;;;;5043996;28;20502;-65
2024/02/28 06:05:42;;;;;;;10.55;5.80;;;4.00;94.80;;;;;;5043254;28;20035;-65
2024/02/28 06:08:07;;;;;;;9.77;5.82;;;4.00;94.70;;;;;;5042602;28;20021;-72
2024/02/28 06:10:33;;;;;;;10.73;6.38;;;4.00;94.70;;;;;;5045430;28;20552;-65
2024/02/28 06:12:58;;;;;;;11.02;6.63;;;4.00;94.70;;;;;;5042213;28;20029;-66
2024/02/28 06:15:24;;;;;;;13.25;7.80;;;4.00;94.70;;;;;;5041365;28;20222;-64
2024/02/28 06:17:49;;;;;;;15.45;8.65;;;4.00;94.80;;;;;;5042333;28;20079;-66
2024/02/28 06:20:15;;;;;;;15.80;9.10;;;4.00;94.80;;;;;;5044147;28;20021;-66
2024/02/28 06:22:41;;;;;;;15.95;8.13;;;4.00;94.90;;;;;;5047730;28;20037;-65
2024/02/28 06:25:13;;;;;;;12.18;7.15;;;4.00;94.90;;;;;;5045374;28;20105;-65
2024/02/28 06:27:39;;;;;;;9.65;5.13;;;4.00;94.90;;;;;;5047471;28;20021;-66
2024/02/28 06:30:06;;;;;;;7.13;4.10;;;4.10;94.80;;;;;;5046429;28;20021;-66
2024/02/28 06:32:32;;;;;;;7.90;4.93;;;4.10;94.80;;;;;;5047018;28;20463;-66
2024/02/28 06:34:58;;;;;;;8.35;4.75;;;4.00;94.70;;;;;;5047723;28;20184;-65
2024/02/28 06:37:23;;;;;;;6.07;3.97;;;3.90;94.80;;;;;;5049276;28;20372;-65
2024/02/28 06:39:49;;;;;;;9.15;5.63;;;3.90;95.00;;;;;;5050900;28;20029;-64
2024/02/28 06:42:14;;;;;;;9.77;5.57;;;3.70;95.00;;;;;;5048239;28;20063;-67
2024/02/28 06:44:40;;;;;;;12.35;7.03;;;3.60;95.30;;;;;;5050728;28;20025;-65
2024/02/28 06:47:05;;;;;;;9.60;5.97;;;3.60;95.90;;;;;;5045155;28;20025;-65
2024/02/28 06:49:31;;;;;;;12.18;7.00;;;3.60;95.70;;;;;;5053060;28;20032;-66
2024/02/28 06:51:59;;;;;;;9.95;6.10;;;3.70;95.70;;;;;;5053075;28;20510;-64
2024/02/28 06:54:24;;;;;;;11.43;6.50;;;3.70;95.70;;;;;;5052792;28;20495;-65
2024/02/28 06:56:50;;;;;;;10.07;6.20;;;3.80;95.50;;;;;;5051665;28;20053;-65
2024/02/28 06:59:15;;;;;;;10.45;6.80;;;3.80;95.40;;;;;;5048031;28;20111;-64
2024/02/28 07:01:41;;;;;;;11.40;6.38;;;3.80;95.30;;;;;;5048486;28;20059;-66
2024/02/28 07:04:07;;;;;;;8.88;4.85;;;3.90;95.20;;;;;;5051190;28;20076;-65
2024/02/28 07:06:32;;;;;;;12.13;7.30;;;3.90;95.20;;;;;;5049466;28;20021;-67
2024/02/28 07:08:58;;;;;;;12.77;6.82;;;3.90;95.10;;;;;;5049819;28;20649;-65
2024/02/28 07:11:23;;;;;;;12.07;7.22;;;4.00;95.10;;;;;;5050042;28;20024;-66
2024/02/28 07:13:49;;;;;;;12.80;7.70;;;4.00;95.10;;;;;;5045615;28;20051;-65
2024/02/28 07:16:15;;;;;;;12.48;7.13;;;4.00;95.00;;;;;;5047216;28;20151;-66
2024/02/28 07:18:40;;;;;;;17.98;9.85;;;4.00;95.00;;;;;;5047952;28;20295;-65
2024/02/28 07:21:06;;;;;;;15.02;8.48;;;4.00;94.90;;;;;;5047851;28;20094;-65
2024/02/28 07:23:32;;;;;;;11.82;7.13;;;4.00;94.90;;;;;;5049565;28;20040;-65
2024/02/28 07:25:58;;;;;;;14.35;8.30;;;4.10;94.90;;;;;;5059540;28;20036;-64
2024/02/28 07:28:23;;;;;;;11.55;7.53;;;4.10;94.80;;;;;;5051215;28;20017;-65
2024/02/28 07:30:49;;;;;;;15.07;8.80;;;4.10;94.80;;;;;;5050283;28;20033;-67
2024/02/28 07:33:14;;;;;;;21.30;11.25;;;4.20;94.70;;;;;;5051571;28;20016;-65
2024/02/28 07:35:52;;;;;;;18.40;10.73;;;4.20;94.60;;;;;;5057464;28;20403;-65
2024/02/28 07:38:20;;;;;;;16.15;9.30;;;4.20;94.60;;;;;;5054891;28;20033;-66
2024/02/28 07:40:46;;;;;;;14.27;8.30;;;4.20;94.60;;;;;;5047808;28;20080;-67
2024/02/28 07:43:11;;;;;;;13.32;7.47;;;4.20;94.60;;;;;;5045103;28;20102;-67
2024/02/28 07:45:37;;;;;;;14.85;9.50;;;4.30;94.50;;;;;;5045540;28;20024;-65
2024/02/28 07:48:02;;;;;;;19.10;11.52;;;4.30;94.50;;;;;;5045984;28;20021;-65
2024/02/28 07:50:28;;;;;;;20.73;11.77;;;4.30;94.50;;;;;;5044395;28;20033;-66
2024/02/28 07:52:55;;;;;;;17.02;10.23;;;4.20;94.50;;;;;;5049508;28;20028;-66
2024/02/28 07:55:22;;;;;;;16.08;10.15;;;4.30;94.60;;;;;;5049999;28;20028;-66
2024/02/28 07:57:50;;;;;;;18.52;11.23;;;4.30;94.60;;;;;;5051047;28;20123;-67
2024/02/28 08:00:18;;;;;;;17.38;9.90;;;4.30;94.60;;;;;;5045555;28;20034;-67
2024/02/28 08:02:44;;;;;;;16.27;9.05;;;4.40;94.60;;;;;;5048775;28;20183;-66
2024/02/28 08:05:10;;;;;;;17.23;9.80;;;4.40;94.60;;;;;;5049552;28;20092;-66
2024/02/28 08:07:35;;;;;;;14.35;8.18;;;4.50;94.50;;;;;;5044215;28;20104;-66
2024/02/28 08:10:02;;;;;;;19.67;11.80;;;4.60;94.50;;;;;;5047453;28;20063;-66
2024/02/28 08:12:27;;;;;;;16.45;9.75;;;4.60;94.40;;;;;;5054031;28;20087;-66
2024/02/28 08:14:53;;;;;;;15.02;8.50;;;4.60;94.40;;;;;;5055540;28;20037;-66
2024/02/28 08:17:18;;;;;;;23.10;12.98;;;4.60;94.40;;;;;;5046753;28;20044;-66
2024/02/28 08:19:44;;;;;;;23.70;13.75;;;4.70;94.40;;;;;;5050023;28;20032;-67
2024/02/28 08:22:10;;;;;;;24.70;14.13;;;4.70;94.40;;;;;;5042837;28;20030;-66
2024/02/28 08:24:37;;;;;;;26.52;14.50;;;4.60;94.40;;;;;;5055779;28;20258;-66
2024/02/28 08:27:02;;;;;;;30.17;16.65;;;4.60;94.40;;;;;;5046678;28;20025;-68
2024/02/28 08:29:28;;;;;;;22.08;12.88;;;4.60;94.50;;;;;;5052433;28;20013;-67
2024/02/28 08:31:54;;;;;;;27.95;15.45;;;4.60;94.50;;;;;;5048246;28;20040;-66
2024/02/28 08:34:19;;;;;;;23.85;12.48;;;4.70;94.50;;;;;;5056931;28;20028;-66
2024/02/28 08:36:45;;;;;;;22.15;12.60;;;4.70;94.50;;;;;;5054762;28;20063;-66
2024/02/28 08:39:11;;;;;;;26.42;14.02;;;4.80;94.50;;;;;;5056545;28;20428;-67
2024/02/28 08:41:36;;;;;;;27.08;14.70;;;4.80;94.60;;;;;;5054284;28;20071;-67
2024/02/28 08:44:02;;;;;;;28.23;15.07;;;4.80;94.50;;;;;;5055996;28;20033;-67
2024/02/28 08:46:28;;;;;;;31.23;16.70;;;4.80;94.60;;;;;;5055222;28;20032;-66
2024/02/28 08:48:53;;;;;;;27.00;13.95;;;4.80;94.60;;;;;;5058472;28;20207;-67
2024/02/28 08:51:19;;;;;;;24.40;12.50;;;4.80;94.70;;;;;;5055404;28;20476;-67
2024/02/28 08:53:44;;;;;;;30.13;14.50;;;4.80;94.70;;;;;;5048383;28;20094;-67
2024/02/28 08:56:10;;;;;;;22.73;11.90;;;4.90;94.80;;;;;;5048919;28;20037;-66
2024/02/28 08:58:37;;;;;;;22.80;12.65;;;5.00;94.80;;;;;;5051796;28;20024;-66
2024/02/28 09:01:04;;;;;;;24.60;12.88;;;5.10;94.70;;;;;;5049102;28;20032;-68
2024/02/28 09:03:29;;;;;;;40.38;21.80;;;5.10;94.60;;;;;;5041676;28;20162;-66
2024/02/28 09:05:55;;;;;;;36.13;18.42;;;5.10;94.70;;;;;;5049214;28;20100;-68
2024/02/28 09:08:20;;;;;;;28.77;15.02;;;5.00;94.70;;;;;;5053195;28;20052;-66
2024/02/28 09:10:47;;;;;;;29.95;16.50;;;5.00;94.80;;;;;;5049010;28;20484;-68
2024/02/28 09:13:13;;;;;;;34.03;16.95;;;5.10;94.90;;;;;;5043135;28;20017;-66
2024/02/28 09:15:38;;;;;;;30.98;16.45;;;5.10;94.90;;;;;;5050758;28;20043;-66
2024/02/28 09:18:04;;;;;;;26.77;14.25;;;5.10;95.00;;;;;;5046176;28;20051;-69
2024/02/28 09:20:30;;;;;;;29.30;16.65;;;5.20;95.00;;;;;;5047154;28;20029;-65
2024/02/28 09:22:56;;;;;;;28.20;14.85;;;5.20;94.90;;;;;;5054984;28;20368;-66
2024/02/28 09:25:21;;;;;;;27.45;14.38;;;5.30;95.00;;;;;;5048626;28;20029;-66
2024/02/28 09:27:47;;;;;;;25.85;13.25;;;5.40;95.00;;;;;;5053567;28;20025;-64
2024/02/28 09:30:13;;;;;;;22.10;11.95;;;5.40;94.90;;;;;;5046945;28;20099;-65
2024/02/28 09:32:39;;;;;;;32.33;16.13;;;5.50;94.90;;;;;;5047423;28;20112;-64
2024/02/28 09:35:05;;;;;;;31.45;17.52;;;5.50;94.80;;;;;;5047762;28;20120;-67
2024/02/28 09:37:31;;;;;;;29.88;16.20;;;5.50;94.80;;;;;;5048674;28;20027;-65
2024/02/28 09:39:57;;;;;;;20.20;10.93;;;5.50;95.00;;;;;;5048259;28;20040;-65
2024/02/28 09:42:23;;;;;;;26.40;13.02;;;5.60;95.00;;;;;;5044457;28;20051;-65
2024/02/28 09:44:49;;;;;;;23.45;12.55;;;5.60;94.90;;;;;;5047052;28;20484;-67
2024/02/28 09:47:14;;;;;;;19.77;11.38;;;5.60;95.00;;;;;;5047721;28;20036;-65
2024/02/28 09:49:42;;;;;;;25.85;14.65;;;5.70;95.00;;;;;;5047520;28;20025;-67
2024/02/28 09:52:08;;;;;;;31.65;17.25;;;5.60;94.90;;;;;;5042330;28;20455;-65
2024/02/28 09:54:34;;;;;;;31.88;15.68;;;5.60;94.90;;;;;;5048473;28;20051;-67
2024/02/28 09:57:00;;;;;;;27.92;14.70;;;5.60;94.90;;;;;;5047870;28;20029;-65
2024/02/28 09:59:26;;;;;;;28.88;15.57;;;5.60;95.00;;;;;;5044021;28;20033;-66
2024/02/28 10:01:57;;;;;;;24.10;13.15;;;5.70;95.10;;;;;;5046100;28;20045;-67
2024/02/28 10:04:25;;;;;;;24.25;14.32;;;5.80;95.10;;;;;;5045647;28;20025;-67
2024/02/28 10:06:51;;;;;;;29.52;15.95;;;5.90;95.00;;;;;;5039132;28;20052;-66
2024/02/28 10:09:17;;;;;;;24.25;12.98;;;5.90;94.80;;;;;;5049247;28;20059;-66
2024/02/28 10:11:49;;;;;;;23.23;11.98;;;6.00;94.80;;;;;;5052369;28;20025;-66
2024/02/28 10:14:18;;;;;;;;;;;6.00;94.80;;;;;;5051166;28;20086;-65
2024/02/28 10:16:44;;;;;;;31.33;15.15;;;6.10;94.80;;;;;;5058931;28;19948;-66
2024/02/28 10:19:09;;;;;;;23.83;13.15;;;6.00;94.80;;;;;;5052950;28;20068;-66
2024/02/28 10:21:35;;;;;;;25.85;14.23;;;6.20;94.80;;;;;;5050786;28;20032;-66
2024/02/28 10:24:01;;;;;;;29.80;15.90;;;6.30;94.80;;;;;;5053517;28;20021;-67
2024/02/28 10:26:27;;;;;;;27.33;13.23;;;6.30;94.70;;;;;;5059612;28;20025;-66
2024/02/28 10:28:52;;;;;;;21.38;12.00;;;6.30;94.70;;;;;;5051424;28;20028;-67
2024/02/28 10:31:20;;;;;;;30.52;15.10;;;6.50;94.70;;;;;;5060401;28;20395;-67
2024/02/28 10:33:46;;;;;;;18.27;10.48;;;6.50;94.50;;;;;;5059476;28;20495;-67
2024/02/28 10:36:12;;;;;;;23.15;13.18;;;6.60;94.50;;;;;;5051581;28;20063;-66
2024/02/28 10:38:37;;;;;;;22.50;13.18;;;6.70;94.50;;;;;;5048817;28;20029;-65
2024/02/28 10:41:03;;;;;;;30.58;16.30;;;6.80;94.40;;;;;;5047450;28;20084;-68
2024/02/28 10:43:30;;;;;;;30.15;17.25;;;6.80;94.30;;;;;;5056646;28;20036;-66
2024/02/28 10:46:01;;;;;;;28.77;15.20;;;6.80;94.20;;;;;;5060561;28;20024;-66
2024/02/28 10:48:27;;;;;;;22.13;12.77;;;6.80;94.20;;;;;;5057376;28;20063;-67
2024/02/28 10:50:56;;;;;;;27.02;15.10;;;6.90;94.20;;;;;;5052624;28;20072;-65
2024/02/28 10:53:32;;;;;;;29.70;16.35;;;7.10;94.40;;;;;;5045623;28;20376;-66
2024/02/28 10:56:03;;;;;;;27.92;15.52;;;7.20;94.00;;;;;;5053146;28;20031;-67
2024/02/28 10:58:42;;;;;;;24.20;14.45;;;7.10;93.90;;;;;;5050132;28;20040;-67
2024/02/28 11:01:08;;;;;;;23.73;12.98;;;7.20;93.90;;;;;;5050867;28;20031;-67
2024/02/28 11:03:35;;;;;;;25.75;14.32;;;7.20;93.80;;;;;;5049709;28;20033;-66
2024/02/28 11:06:00;;;;;;;29.90;15.60;;;7.20;93.80;;;;;;5050300;28;20029;-67
2024/02/28 11:08:29;;;;;;;28.92;15.55;;;7.20;93.70;;;;;;5049838;28;20021;-66
2024/02/28 11:10:59;;;;;;;26.25;15.15;;;7.20;93.80;;;;;;5050944;28;20021;-67
2024/02/28 11:13:26;;;;;;;35.88;19.42;;;7.20;93.80;;;;;;5048851;28;20105;-66
2024/02/28 11:15:52;;;;;;;26.17;14.50;;;7.10;93.70;;;;;;5050690;28;20021;-66
2024/02/28 11:18:18;;;;;;;22.52;13.45;;;7.10;93.80;;;;;;5049460;28;20557;-66
2024/02/28 11:20:47;;;;;;;34.33;18.75;;;7.20;93.90;;;;;;5050398;28;20028;-67
2024/02/28 11:23:14;;;;;;;22.92;12.88;;;7.30;93.80;;;;;;5048093;28;20044;-66
2024/02/28 11:25:42;;;;;;;16.63;9.70;;;7.30;93.90;;;;;;5053817;28;20376;-66
2024/02/28 11:28:08;;;;;;;15.57;8.95;;;7.50;93.80;;;;;;5051195;28;20187;-66
2024/02/28 11:30:34;;;;;;;21.90;12.52;;;7.60;93.70;;;;;;5047106;28;20384;-66
2024/02/28 11:33:00;;;;;;;25.45;14.52;;;7.70;93.60;;;;;;5046298;28;20036;-65
2024/02/28 11:35:27;;;;;;;34.70;19.60;;;7.70;93.50;;;;;;5048671;28;20025;-65
2024/02/28 11:37:57;;;;;;;26.17;14.88;;;7.70;93.50;;;;;;5050909;28;20082;-65
2024/02/28 11:40:25;;;;;;;25.45;14.18;;;7.60;93.60;;;;;;5049607;28;20025;-67
2024/02/28 11:42:51;;;;;;;26.27;15.25;;;7.70;93.70;;;;;;5048059;28;20036;-65
2024/02/28 11:45:16;;;;;;;29.83;17.67;;;7.70;93.60;;;;;;5048145;28;20375;-65
2024/02/28 11:47:42;;;;;;;24.10;14.88;;;7.70;93.70;;;;;;5048657;28;20037;-65
2024/02/28 11:50:07;;;;;;;29.17;16.00;;;7.70;93.70;;;;;;5046576;28;20013;-64
2024/02/28 11:52:37;;;;;;;28.20;15.38;;;7.60;93.70;;;;;;5048931;28;20975;-65
2024/02/28 11:55:03;;;;;;;22.65;13.20;;;7.60;93.70;;;;;;5050041;28;20029;-66
2024/02/28 11:57:30;;;;;;;20.27;12.68;;;7.70;93.80;;;;;;5049520;28;21669;-66
2024/02/28 11:59:56;;;;;;;18.02;10.73;;;7.80;93.80;;;;;;5049510;28;20458;-66
2024/02/28 12:02:25;;;;;;;15.32;9.35;;;7.80;93.80;;;;;;5049069;28;20139;-65
2024/02/28 12:04:51;;;;;;;17.55;10.63;;;8.00;93.80;;;;;;5045825;28;20500;-66
2024/02/28 12:07:16;;;;;;;19.90;11.73;;;8.10;93.60;;;;;;5045570;28;20116;-65
2024/02/28 12:09:44;;;;;;;19.20;10.57;;;8.10;93.60;;;;;;5049380;28;20017;-65
2024/02/28 12:12:11;;;;;;;17.33;10.25;;;8.20;93.60;;;;;;5049029;28;20429;-67
2024/02/28 12:14:39;;;;;;;15.15;8.75;;;8.30;93.60;;;;;;5049607;28;20056;-66
2024/02/28 12:17:04;;;;;;;17.48;10.18;;;8.40;93.60;;;;;;5049156;28;20025;-66
2024/02/28 12:19:30;;;;;;;12.90;7.60;;;8.40;93.50;;;;;;5048611;28;20055;-66
2024/02/28 12:21:56;;;;;;;12.90;7.50;;;8.50;93.40;;;;;;5047793;28;20025;-65
2024/02/28 12:24:21;;;;;;;16.52;10.07;;;8.60;93.40;;;;;;5045474;28;20400;-66
2024/02/28 12:26:47;;;;;;;16.38;9.13;;;8.50;93.30;;;;;;5048773;28;20036;-65
2024/02/28 12:29:13;;;;;;;17.60;10.25;;;8.40;93.50;;;;;;5046643;28;20487;-65
2024/02/28 12:31:39;;;;;;;18.15;10.52;;;8.40;93.60;;;;;;5048055;28;20316;-66
2024/02/28 12:34:04;;;;;;;16.38;9.65;;;8.40;93.70;;;;;;5050060;28;20446;-67
2024/02/28 12:36:30;;;;;;;16.67;9.80;;;8.50;93.80;;;;;;5048437;28;20032;-66
2024/02/28 12:38:57;;;;;;;14.13;8.77;;;8.60;93.80;;;;;;5045356;28;20027;-65